createdAt,value
2019-04-07T00:00:28.426Z,80.80
2019-04-07T00:02:59.259Z,81.50
2019-04-07T00:05:31.014Z,81.30
2019-04-07T00:08:04.889Z,81.10
2019-04-07T00:10:36.004Z,81.10
2019-04-07T00:13:07.294Z,80.50
2019-04-07T00:15:38.958Z,80.50
2019-04-07T00:18:10.363Z,80.10
2019-04-07T00:20:42.027Z,79.40
2019-04-07T00:23:13.133Z,78.80
2019-04-07T00:25:44.415Z,78.30
2019-04-07T00:28:15.195Z,78.10
2019-04-07T00:30:46.183Z,77.50
2019-04-07T00:33:17.211Z,77.00
2019-04-07T00:35:48.009Z,76.10
2019-04-07T00:38:19.318Z,75.50
2019-04-07T00:40:50.666Z,75.40
2019-04-07T00:43:21.712Z,75.60
2019-04-07T00:45:52.607Z,75.70
2019-04-07T00:48:24.391Z,75.70
2019-04-07T00:50:56.161Z,75.10
2019-04-07T00:53:27.032Z,74.30
2019-04-07T00:55:58.294Z,73.90
2019-04-07T00:58:29.162Z,73.30
2019-04-07T01:01:00.159Z,73.20
2019-04-07T01:03:31.216Z,73.10
2019-04-07T01:06:02.266Z,72.40
2019-04-07T01:08:33.534Z,72.30
2019-04-07T01:11:05.568Z,72.00
2019-04-07T01:13:37.374Z,70.60
2019-04-07T01:16:08.347Z,70.60
2019-04-07T01:18:39.615Z,70.20
2019-04-07T01:21:10.474Z,70.00
2019-04-07T01:23:41.500Z,68.20
2019-04-07T01:26:12.775Z,68.00
2019-04-07T01:28:44.045Z,67.30
2019-04-07T01:31:15.248Z,66.80
2019-04-07T01:33:46.867Z,66.30
2019-04-07T01:36:18.327Z,66.40
2019-04-07T01:38:49.391Z,65.90
2019-04-07T01:41:21.987Z,65.50
2019-04-07T01:43:54.698Z,64.80
2019-04-07T01:46:27.352Z,64.10
2019-04-07T01:49:00.116Z,63.90
2019-04-07T01:51:32.283Z,64.10
2019-04-07T01:54:04.554Z,63.70
2019-04-07T01:56:37.199Z,63.60
2019-04-07T01:59:11.255Z,63.20
2019-04-07T02:01:43.906Z,61.00
2019-04-07T02:04:14.895Z,61.20
2019-04-07T02:06:47.503Z,61.50
2019-04-07T02:09:18.313Z,60.30
2019-04-07T02:11:50.506Z,59.40
2019-04-07T02:14:22.416Z,58.50
2019-04-07T02:16:55.267Z,58.40
2019-04-07T02:19:27.797Z,58.20
2019-04-07T02:22:00.351Z,57.20
2019-04-07T02:24:33.404Z,56.50
2019-04-07T02:27:06.078Z,56.90
2019-04-07T02:29:38.798Z,56.70
2019-04-07T02:32:11.363Z,56.00
2019-04-07T02:34:44.086Z,55.30
2019-04-07T02:37:17.384Z,55.70
2019-04-07T02:39:48.653Z,56.00
2019-04-07T02:42:21.498Z,56.20
2019-04-07T02:44:52.531Z,55.40
2019-04-07T02:47:24.640Z,55.30
2019-04-07T02:49:57.104Z,55.20
2019-04-07T02:52:30.505Z,54.50
2019-04-07T02:55:03.017Z,54.60
2019-04-07T02:57:35.890Z,54.70
2019-04-07T03:00:10.062Z,54.80
2019-04-07T03:02:41.298Z,54.20
2019-04-07T03:05:13.798Z,54.50
2019-04-07T03:07:47.248Z,52.90
2019-04-07T03:10:19.667Z,52.40
2019-04-07T03:12:51.703Z,52.80
2019-04-07T03:15:24.909Z,52.30
2019-04-07T03:17:55.789Z,52.30
2019-04-07T03:20:28.139Z,52.70
2019-04-07T03:23:01.925Z,52.50
2019-04-07T03:25:32.994Z,51.10
2019-04-07T03:28:05.459Z,50.90
2019-04-07T03:30:40.304Z,50.70
2019-04-07T03:33:14.204Z,50.70
2019-04-07T03:35:50.490Z,50.00
2019-04-07T03:38:20.522Z,50.20
2019-04-07T03:40:52.654Z,50.30
2019-04-07T03:43:25.517Z,49.30
2019-04-07T03:45:58.009Z,49.50
2019-04-07T03:48:30.461Z,49.40
2019-04-07T03:51:03.187Z,48.40
2019-04-07T03:53:35.693Z,48.80
2019-04-07T03:56:08.109Z,48.00
2019-04-07T03:58:39.685Z,48.60
2019-04-07T04:01:13.580Z,48.50
2019-04-07T04:03:44.686Z,48.10
2019-04-07T04:06:17.558Z,47.70
2019-04-07T04:08:50.662Z,47.90
2019-04-07T04:11:23.658Z,47.70
2019-04-07T04:13:56.636Z,46.40
2019-04-07T04:16:28.553Z,46.00
2019-04-07T04:19:00.056Z,47.50
2019-04-07T04:21:30.984Z,47.70
2019-04-07T04:24:02.195Z,46.80
2019-04-07T04:26:33.261Z,47.00
2019-04-07T04:29:04.472Z,47.30
2019-04-07T04:31:35.887Z,46.50
2019-04-07T04:34:07.190Z,45.40
2019-04-07T04:36:38.102Z,45.90
2019-04-07T04:39:10.078Z,46.00
2019-04-07T04:41:41.169Z,45.50
2019-04-07T04:44:12.271Z,45.50
2019-04-07T04:46:43.315Z,46.60
2019-04-07T04:49:14.948Z,46.80
2019-04-07T04:51:46.084Z,46.70
2019-04-07T04:54:17.212Z,47.30
2019-04-07T04:56:48.746Z,46.80
2019-04-07T04:59:20.354Z,46.10
2019-04-07T05:01:51.512Z,47.20
2019-04-07T05:04:22.971Z,45.60
2019-04-07T05:06:54.240Z,45.90
2019-04-07T05:09:25.744Z,45.70
2019-04-07T05:11:57.696Z,46.60
2019-04-07T05:14:28.458Z,46.30
2019-04-07T05:16:59.513Z,46.60
2019-04-07T05:19:30.494Z,47.10
2019-04-07T05:22:02.428Z,44.50
2019-04-07T05:24:33.638Z,45.50
2019-04-07T05:27:04.737Z,46.50
2019-04-07T05:29:36.536Z,46.70
2019-04-07T05:32:08.039Z,46.30
2019-04-07T05:34:39.089Z,45.70
2019-04-07T05:37:10.714Z,45.80
2019-04-07T05:39:42.527Z,46.30
2019-04-07T05:42:13.608Z,46.40
2019-04-07T05:44:44.551Z,46.40
2019-04-07T05:47:15.601Z,45.90
2019-04-07T05:49:46.557Z,44.90
2019-04-07T05:52:18.092Z,45.30
2019-04-07T05:54:49.957Z,46.20
2019-04-07T05:57:21.860Z,44.60
2019-04-07T05:59:52.909Z,44.30
2019-04-07T06:02:24.423Z,44.60
2019-04-07T06:04:57.154Z,44.70
2019-04-07T06:07:30.725Z,44.90
2019-04-07T06:10:00.973Z,45.20
2019-04-07T06:12:31.695Z,44.90
2019-04-07T06:15:02.689Z,44.20
2019-04-07T06:17:34.622Z,43.70
2019-04-07T06:20:12.051Z,41.80
2019-04-07T06:22:40.430Z,42.70
2019-04-07T06:25:13.097Z,40.60
2019-04-07T06:27:45.317Z,41.30
2019-04-07T06:30:17.642Z,42.10
2019-04-07T06:32:48.509Z,41.70
2019-04-07T06:35:19.364Z,41.00
2019-04-07T06:37:50.833Z,41.20
2019-04-07T06:40:22.293Z,41.90
2019-04-07T06:42:54.364Z,41.90
2019-04-07T06:45:26.691Z,41.90
2019-04-07T06:48:01.233Z,41.30
2019-04-07T06:50:31.375Z,40.10
2019-04-07T06:53:04.370Z,40.40
2019-04-07T06:55:36.227Z,42.00
2019-04-07T06:58:08.890Z,40.50
2019-04-07T07:00:39.771Z,41.40
2019-04-07T07:03:12.838Z,40.00
2019-04-07T07:05:46.172Z,41.20
2019-04-07T07:08:21.105Z,40.80
2019-04-07T07:10:53.085Z,40.50
2019-04-07T07:13:29.851Z,42.00
2019-04-07T07:15:58.438Z,41.90
2019-04-07T07:18:29.554Z,41.00
2019-04-07T07:21:03.154Z,39.50
2019-04-07T07:23:35.136Z,40.20
2019-04-07T07:26:07.085Z,41.10
2019-04-07T07:28:38.076Z,40.70
2019-04-07T07:31:08.870Z,40.30
2019-04-07T07:33:41.779Z,40.20
2019-04-07T07:36:12.393Z,40.40
2019-04-07T07:38:55.747Z,40.40
2019-04-07T07:41:19.757Z,39.80
2019-04-07T07:43:48.272Z,39.90
2019-04-07T07:46:22.401Z,41.10
2019-04-07T07:48:52.193Z,40.10
2019-04-07T07:51:24.726Z,39.00
2019-04-07T07:53:58.577Z,38.70
2019-04-07T07:56:27.953Z,39.30
2019-04-07T07:59:00.863Z,40.30
2019-04-07T08:01:32.203Z,38.70
2019-04-07T08:04:03.748Z,39.40
2019-04-07T08:06:38.285Z,40.00
2019-04-07T08:09:13.734Z,39.10
2019-04-07T08:11:42.363Z,39.80
2019-04-07T08:14:16.618Z,38.50
2019-04-07T08:16:46.217Z,38.20
2019-04-07T08:19:17.907Z,39.80
2019-04-07T08:21:51.227Z,39.70
2019-04-07T08:24:21.831Z,40.80
2019-04-07T08:26:56.254Z,39.30
2019-04-07T08:29:25.637Z,40.80
2019-04-07T08:31:57.574Z,39.80
2019-04-07T08:34:30.533Z,39.80
2019-04-07T08:37:00.966Z,39.40
2019-04-07T08:39:35.005Z,40.30
2019-04-07T08:42:09.587Z,39.60
2019-04-07T08:44:36.994Z,39.30
2019-04-07T08:47:11.719Z,40.00
2019-04-07T08:49:41.592Z,39.80
2019-04-07T08:52:12.857Z,39.40
2019-04-07T08:54:44.357Z,39.40
2019-04-07T08:57:16.322Z,40.00
2019-04-07T08:59:48.064Z,39.50
2019-04-07T09:02:19.973Z,40.00
2019-04-07T09:04:52.298Z,40.20
2019-04-07T09:07:24.571Z,39.70
2019-04-07T09:09:55.613Z,39.70
2019-04-07T09:12:28.917Z,40.70
2019-04-07T09:14:59.539Z,41.20
2019-04-07T09:17:39.906Z,40.80
2019-04-07T09:20:10.370Z,40.80
2019-04-07T09:22:42.022Z,41.20
2019-04-07T09:25:13.133Z,41.00
2019-04-07T09:27:46.085Z,42.10
2019-04-07T09:30:19.663Z,42.10
2019-04-07T09:32:52.070Z,41.70
2019-04-07T09:35:26.487Z,42.00
2019-04-07T09:37:58.757Z,42.40
2019-04-07T09:40:31.811Z,42.20
2019-04-07T09:43:03.099Z,41.50
2019-04-07T09:45:34.503Z,41.10
2019-04-07T09:48:07.554Z,41.10
2019-04-07T09:50:38.750Z,42.10
2019-04-07T09:53:11.316Z,42.30
2019-04-07T09:55:45.110Z,42.10
2019-04-07T09:58:18.223Z,42.30
2019-04-07T10:00:53.326Z,42.20
2019-04-07T10:03:23.808Z,42.60
2019-04-07T10:05:55.964Z,42.70
2019-04-07T10:08:28.578Z,42.70
2019-04-07T10:11:00.998Z,43.40
2019-04-07T10:13:34.074Z,43.90
2019-04-07T10:16:09.007Z,44.60
2019-04-07T10:18:40.207Z,44.70
2019-04-07T10:21:12.501Z,45.00
2019-04-07T10:23:44.863Z,45.30
2019-04-07T10:29:12.130Z,45.80
2019-04-07T10:31:45.167Z,46.10
2019-04-07T10:34:16.516Z,46.30
2019-04-07T10:36:48.871Z,46.60
2019-04-07T10:39:21.271Z,46.70
2019-04-07T10:41:53.306Z,46.60
2019-04-07T10:44:26.042Z,47.10
2019-04-07T10:46:58.212Z,47.20
2019-04-07T10:49:30.449Z,47.40
2019-04-07T10:52:02.934Z,47.50
2019-04-07T10:54:35.177Z,47.80
2019-04-07T10:57:07.447Z,48.00
2019-04-07T10:59:38.994Z,48.00
2019-04-07T11:02:11.887Z,48.30
2019-04-07T11:04:45.045Z,48.00
2019-04-07T11:07:18.445Z,47.40
2019-04-07T11:09:49.890Z,47.40
2019-04-07T11:12:23.998Z,47.20
2019-04-07T11:14:57.106Z,47.20
2019-04-07T11:17:28.250Z,47.20
2019-04-07T11:20:01.444Z,47.30
2019-04-07T11:22:31.348Z,47.20
2019-04-07T11:25:03.976Z,47.30
2019-04-07T11:27:35.397Z,47.10
2019-04-07T11:30:09.107Z,47.20
2019-04-07T11:32:41.948Z,47.40
2019-04-07T11:35:15.479Z,47.60
2019-04-07T11:37:48.475Z,47.80
2019-04-07T11:40:20.907Z,48.40
2019-04-07T11:42:53.463Z,49.00
2019-04-07T11:45:25.729Z,49.20
2019-04-07T11:47:58.098Z,49.10
2019-04-07T11:50:30.991Z,49.10
2019-04-07T11:53:01.838Z,49.00
2019-04-07T11:55:33.997Z,49.00
2019-04-07T11:58:13.532Z,49.30
2019-04-07T12:00:41.522Z,49.30
2019-04-07T12:03:12.211Z,53.00
2019-04-07T12:05:44.390Z,52.00
2019-04-07T12:08:16.473Z,52.00
2019-04-07T12:10:58.570Z,52.70
2019-04-07T12:13:22.235Z,50.70
2019-04-07T12:15:56.066Z,51.20
2019-04-07T12:18:28.370Z,51.00
2019-04-07T12:21:03.451Z,49.50
2019-04-07T12:23:34.193Z,48.80
2019-04-07T12:26:06.347Z,49.10
2019-04-07T12:28:38.674Z,49.10
2019-04-07T12:31:10.294Z,49.20
2019-04-07T12:33:40.870Z,49.00
2019-04-07T12:36:13.987Z,49.20
2019-04-07T12:38:46.678Z,48.90
2019-04-07T12:41:22.002Z,48.40
2019-04-07T12:43:52.710Z,49.50
2019-04-07T12:46:24.873Z,52.50
2019-04-07T12:48:57.525Z,53.70
2019-04-07T12:51:28.864Z,55.50
2019-04-07T12:54:03.118Z,57.70
2019-04-07T12:56:36.119Z,59.80
2019-04-07T12:59:08.860Z,60.50
2019-04-07T13:01:43.929Z,60.60
2019-04-07T13:04:15.483Z,61.30
2019-04-07T13:06:47.983Z,61.80
2019-04-07T13:09:19.418Z,61.70
2019-04-07T13:11:52.734Z,63.30
2019-04-07T13:14:25.639Z,63.50
2019-04-07T13:17:00.128Z,63.70
2019-04-07T13:19:30.183Z,64.90
2019-04-07T13:22:03.110Z,65.00
2019-04-07T13:24:38.963Z,64.80
2019-04-07T13:27:10.237Z,63.80
2019-04-07T13:29:43.343Z,62.10
2019-04-07T13:32:16.059Z,61.10
2019-04-07T13:34:49.821Z,59.20
2019-04-07T13:37:20.766Z,59.00
2019-04-07T13:39:53.393Z,59.30
2019-04-07T13:42:26.703Z,59.60
2019-04-07T13:45:02.487Z,60.80
2019-04-07T13:47:34.064Z,62.20
2019-04-07T13:50:07.563Z,62.70
2019-04-07T13:52:41.509Z,63.90
2019-04-07T13:55:14.210Z,64.30
2019-04-07T13:57:46.483Z,64.90
2019-04-07T14:00:20.134Z,64.10
2019-04-07T14:02:53.330Z,63.30
2019-04-07T14:05:26.311Z,64.20
2019-04-07T14:08:00.023Z,62.70
2019-04-07T14:10:35.630Z,62.70
2019-04-07T14:13:06.277Z,61.70
2019-04-07T14:15:38.749Z,61.40
2019-04-07T14:18:10.077Z,61.90
2019-04-07T14:20:42.469Z,60.90
2019-04-07T14:23:13.360Z,59.90
2019-04-07T14:25:47.315Z,59.80
2019-04-07T14:28:17.909Z,60.50
2019-04-07T14:30:50.986Z,59.40
2019-04-07T14:33:23.968Z,59.60
2019-04-07T14:35:56.463Z,59.90
2019-04-07T14:38:29.033Z,60.20
2019-04-07T14:41:01.555Z,59.10
2019-04-07T14:43:34.440Z,59.00
2019-04-07T14:46:07.568Z,58.80
2019-04-07T14:48:40.206Z,58.20
2019-04-07T14:51:13.227Z,57.80
2019-04-07T14:53:46.186Z,57.70
2019-04-07T14:56:18.677Z,57.90
2019-04-07T14:58:53.374Z,58.60
2019-04-07T15:01:25.662Z,56.90
2019-04-07T15:03:56.469Z,55.70
2019-04-07T15:06:31.100Z,55.50
2019-04-07T15:09:03.790Z,54.90
2019-04-07T15:11:35.761Z,55.10
2019-04-07T15:14:06.747Z,55.50
2019-04-07T15:16:38.257Z,55.50
2019-04-07T15:19:09.634Z,56.00
2019-04-07T15:21:41.197Z,56.20
2019-04-07T15:24:12.190Z,56.30
2019-04-07T15:26:46.972Z,56.40
2019-04-07T15:29:15.981Z,56.60
2019-04-07T15:31:50.652Z,56.40
2019-04-07T15:34:19.858Z,56.10
2019-04-07T15:36:51.220Z,56.20
2019-04-07T15:39:22.622Z,56.40
2019-04-07T15:41:53.645Z,57.40
2019-04-07T15:44:24.900Z,58.50
2019-04-07T15:46:56.479Z,59.10
2019-04-07T15:49:28.308Z,60.60
2019-04-07T15:52:01.254Z,60.00
2019-04-07T15:54:32.383Z,60.20
2019-04-07T15:57:03.652Z,59.80
2019-04-07T15:59:35.853Z,61.00
2019-04-07T16:02:10.071Z,61.40
2019-04-07T16:04:39.668Z,61.40
2019-04-07T16:07:11.995Z,61.70
2019-04-07T16:09:51.090Z,61.50
2019-04-07T16:12:16.515Z,62.80
2019-04-07T16:14:48.237Z,62.20
2019-04-07T16:17:21.035Z,62.20
2019-04-07T16:19:54.060Z,62.50
2019-04-07T16:22:24.590Z,62.50
2019-04-07T16:24:56.960Z,64.50
2019-04-07T16:27:28.258Z,63.20
2019-04-07T16:29:59.316Z,63.50
2019-04-07T16:32:30.895Z,64.60
2019-04-07T16:35:01.976Z,64.30
2019-04-07T16:37:33.564Z,64.80
2019-04-07T16:40:08.705Z,64.20
2019-04-07T16:42:37.146Z,63.90
2019-04-07T16:45:12.489Z,64.10
2019-04-07T16:47:42.206Z,63.80
2019-04-07T16:50:17.893Z,65.40
2019-04-07T16:52:46.952Z,65.40
2019-04-07T16:55:21.109Z,65.30
2019-04-07T16:57:52.619Z,65.10
2019-04-07T17:00:23.756Z,65.90
2019-04-07T17:02:54.834Z,65.40
2019-04-07T17:05:26.308Z,65.60
2019-04-07T17:07:59.471Z,67.00
2019-04-07T17:10:33.878Z,66.20
2019-04-07T17:13:13.897Z,65.70
2019-04-07T17:15:39.438Z,66.30
2019-04-07T17:18:10.355Z,66.50
2019-04-07T17:20:41.246Z,66.00
2019-04-07T17:23:12.207Z,66.10
2019-04-07T17:25:43.982Z,66.60
2019-04-07T17:28:16.276Z,66.50
2019-04-07T17:30:47.630Z,66.00
2019-04-07T17:33:20.891Z,66.40
2019-04-07T17:35:52.267Z,67.60
2019-04-07T17:38:25.821Z,68.00
2019-04-07T17:40:55.905Z,67.20
2019-04-07T17:43:36.041Z,67.70
2019-04-07T17:46:02.374Z,68.40
2019-04-07T17:48:40.413Z,67.90
2019-04-07T17:51:09.717Z,68.40
2019-04-07T17:53:45.381Z,67.60
2019-04-07T17:56:18.905Z,68.10
2019-04-07T17:58:49.754Z,68.60
2019-04-07T18:01:24.725Z,68.30
2019-04-07T18:03:55.135Z,68.30
2019-04-07T18:06:31.110Z,67.90
2019-04-07T18:09:05.368Z,68.40
2019-04-07T18:11:32.785Z,68.50
2019-04-07T18:14:05.730Z,68.80
2019-04-07T18:16:37.988Z,68.90
2019-04-07T18:19:10.895Z,69.10
2019-04-07T18:21:47.822Z,69.10
2019-04-07T18:24:15.743Z,69.40
2019-04-07T18:26:48.140Z,69.50
2019-04-07T18:29:23.151Z,69.50
2019-04-07T18:31:57.469Z,70.30
2019-04-07T18:34:28.827Z,69.80
2019-04-07T18:37:02.170Z,69.90
2019-04-07T18:39:35.166Z,71.40
2019-04-07T18:42:10.635Z,70.50
2019-04-07T18:44:41.368Z,70.20
2019-04-07T18:47:15.258Z,69.80
2019-04-07T18:49:48.403Z,71.10
2019-04-07T18:52:22.671Z,71.10
2019-04-07T18:54:53.208Z,70.70
2019-04-07T18:57:25.500Z,70.20
2019-04-07T19:00:01.104Z,70.90
2019-04-07T19:02:31.911Z,70.70
2019-04-07T19:05:04.984Z,70.60
2019-04-07T19:07:37.900Z,71.00
2019-04-07T19:10:17.618Z,70.30
2019-04-07T19:12:47.707Z,70.40
2019-04-07T19:15:18.051Z,70.00
2019-04-07T19:17:50.412Z,70.20
2019-04-07T19:20:22.906Z,70.00
2019-04-07T19:22:56.026Z,70.20
2019-04-07T19:25:29.148Z,70.00
2019-04-07T19:28:03.709Z,70.10
2019-04-07T19:30:34.455Z,69.60
2019-04-07T19:33:06.758Z,69.80
2019-04-07T19:35:40.916Z,70.40
2019-04-07T19:38:12.150Z,70.30
2019-04-07T19:40:47.104Z,70.20
2019-04-07T19:43:18.135Z,70.40
2019-04-07T19:45:50.192Z,70.30
2019-04-07T19:48:20.991Z,70.60
2019-04-07T19:50:55.020Z,70.00
2019-04-07T19:53:28.675Z,70.20
2019-04-07T19:55:59.507Z,70.60
2019-04-07T19:58:36.168Z,70.50
2019-04-07T20:01:06.749Z,70.30
2019-04-07T20:03:40.311Z,70.30
2019-04-07T20:06:12.951Z,70.10
2019-04-07T20:08:45.864Z,70.00
2019-04-07T20:11:18.965Z,70.50
2019-04-07T20:13:50.907Z,70.30
2019-04-07T20:16:21.996Z,70.30
2019-04-07T20:18:57.895Z,70.50
2019-04-07T20:21:35.916Z,70.50
2019-04-07T20:24:03.649Z,71.60
2019-04-07T20:26:31.221Z,71.70
2019-04-07T20:29:04.979Z,72.00
2019-04-07T20:31:36.388Z,71.60
2019-04-07T20:34:09.721Z,71.60
2019-04-07T20:36:42.246Z,71.80
2019-04-07T20:39:15.052Z,71.90
2019-04-07T20:41:48.027Z,71.90
2019-04-07T20:44:21.043Z,71.30
2019-04-07T20:46:57.385Z,71.00
2019-04-07T20:49:27.769Z,70.70
2019-04-07T20:51:59.177Z,71.00
2019-04-07T20:54:33.870Z,70.50
2019-04-07T20:57:03.757Z,70.30
2019-04-07T20:59:46.973Z,70.40
2019-04-07T21:02:11.207Z,70.20
2019-04-07T21:04:43.404Z,70.30
2019-04-07T21:07:16.405Z,70.10
2019-04-07T21:09:48.933Z,69.90
2019-04-07T21:12:19.640Z,71.00
2019-04-07T21:14:51.957Z,70.20
2019-04-07T21:17:24.232Z,70.10
2019-04-07T21:19:56.368Z,69.80
2019-04-07T21:22:27.162Z,69.60
2019-04-07T21:25:00.634Z,69.60
2019-04-07T21:27:34.723Z,69.50
2019-04-07T21:30:06.569Z,69.20
2019-04-07T21:32:38.791Z,69.60
2019-04-07T21:35:11.316Z,69.30
2019-04-07T21:37:48.126Z,69.40
2019-04-07T21:40:19.791Z,69.20
2019-04-07T21:42:54.222Z,69.60
2019-04-07T21:45:36.857Z,70.00
2019-04-07T21:48:00.236Z,70.00
2019-04-07T21:50:33.213Z,69.70
2019-04-07T21:53:05.462Z,69.50
2019-04-07T21:55:40.162Z,69.50
2019-04-07T21:58:12.383Z,69.60
2019-04-07T22:00:45.407Z,69.50
2019-04-07T22:03:18.406Z,69.50
2019-04-07T22:05:50.943Z,69.60
2019-04-07T22:08:23.325Z,69.70
2019-04-07T22:10:55.293Z,69.90
2019-04-07T22:13:26.374Z,70.20
2019-04-07T22:16:01.500Z,70.70
2019-04-07T22:18:29.431Z,71.30
2019-04-07T22:21:01.440Z,70.60
2019-04-07T22:23:32.650Z,70.40
2019-04-07T22:26:04.551Z,70.80
2019-04-07T22:28:35.662Z,70.60
2019-04-07T22:31:10.928Z,70.30
2019-04-07T22:33:39.070Z,71.20
2019-04-07T22:36:13.925Z,70.30
2019-04-07T22:38:43.232Z,70.50
2019-04-07T22:41:14.426Z,71.30
2019-04-07T22:43:47.840Z,72.90
2019-04-07T22:46:21.958Z,72.90
2019-04-07T22:48:50.211Z,73.40
2019-04-07T22:51:21.009Z,74.00
2019-04-07T22:53:55.344Z,73.20
2019-04-07T22:56:24.417Z,72.90
2019-04-07T22:58:56.187Z,72.80
2019-04-07T23:01:27.193Z,72.20
2019-04-07T23:03:58.482Z,72.20
2019-04-07T23:06:29.309Z,72.90
2019-04-07T23:09:00.272Z,72.50
2019-04-07T23:11:32.031Z,72.60
2019-04-07T23:14:03.091Z,72.10
2019-04-07T23:16:34.080Z,72.30
2019-04-07T23:19:05.287Z,72.10
2019-04-07T23:21:36.092Z,72.00
2019-04-07T23:24:07.207Z,71.60
2019-04-07T23:26:38.418Z,71.30
2019-04-07T23:29:10.032Z,71.40
2019-04-07T23:31:41.168Z,71.70
2019-04-07T23:34:12.098Z,72.10
2019-04-07T23:36:43.607Z,72.50
2019-04-07T23:39:15.182Z,73.80
2019-04-07T23:41:46.159Z,73.80
2019-04-07T23:44:17.217Z,74.20
2019-04-07T23:46:48.812Z,73.90
2019-04-07T23:49:20.357Z,73.50
2019-04-07T23:51:51.463Z,73.70
2019-04-07T23:54:22.586Z,73.90
2019-04-07T23:56:54.134Z,74.30
2019-04-07T23:59:25.386Z,73.80
